Startpagina
METAR-TAF:

METAR-TAF

Vliegvelden :

Sandspit, Brits Columbia, Canada

breedte: 53-15N, lengte: 131-49W, hoogte: 6 m

Actueel weer

Dit bericht is 24 minuten geleden gemaakt, om 20:00 UTC
Wind 8 kt uit het noorden
Temperatuur 8°C
Vochtigheid 61%
Druk 1026 hPa
Zicht: 14.5 km
Onbewolkt

METAR: CYZP 102000Z AUTO 01008KT 9SM CLR 08/01 A3031 RMK SLP265

Tijdstip: 13:24 (20:24 UTC)

Verwachting

Dit bericht is 1 uur en het 46 minuten geleden gemaakt, om 18:38 UTC
Verwachting geldig van 10 om 19 UTC tot 11 om 07 UTC
Wind 12 kt uit het noordnoordwesten
Zicht: 10 km
Verspreide wolken op 22000 ft

TAF: CYZP 101838Z 1019/1107 33012KT P6SM SCT220 RMK FCST BASED ON AUTO OBS. NXT FCST BY 110100Z

Waarnemingen en weersverwachtingen van meer dan 4000 vliegvelden (METAR en TAF).

De beschikbare stations zijn de gele en rode punten op de kaart.

Ga met uw muis naar het station om de naam te zien.

Klik dan om waarnemingen en weersverwachtingen te zien.

kaart wijzigen: klik op de groene knoppen met een zwart kruis om in te zoomen, op de groene knop met een streepje om uit te zoomen of op de groene pijlen voor aangrenzende kaarten.


METAR-TAF: